Time;durP1;ratioP1;P1;durP2;ratioP2;P2;SDS_P1;SDS_P2;PMS_P1;PMS_P2;Temp;Humidity;BMP_temperature;BMP_pressure;BME280_temperature;BME280_humidity;BME280_pressure;Samples;Min_cycle;Max_cycle;Signal;HPM_P1;HPM_P2
2023/12/13 00:01:44;;;;;;;6.55;2.40;;;;;;;7.40;100.00;99578.16;5050039;28;20021;-81
2023/12/13 00:04:09;;;;;;;7.63;2.55;;;;;;;7.41;100.00;99578.97;5050436;28;20408;-81
2023/12/13 00:06:34;;;;;;;7.82;2.30;;;;;;;7.40;100.00;99575.53;5052405;28;20829;-82
2023/12/13 00:09:01;;;;;;;9.50;2.50;;;;;;;7.37;100.00;99573.16;5059213;28;20111;-80
2023/12/13 00:11:26;;;;;;;5.93;2.42;;;;;;;7.38;100.00;99571.38;5067250;28;20028;-80
2023/12/13 00:13:51;;;;;;;7.25;2.10;;;;;;;7.39;100.00;99570.44;5067818;28;20027;-80
2023/12/13 00:16:18;;;;;;;10.15;2.88;;;;;;;7.37;100.00;99567.94;5066923;28;20559;-80
2023/12/13 00:18:46;;;;;;;6.43;2.40;;;;;;;7.37;100.00;99573.16;5067490;28;20032;-80
2023/12/13 00:21:13;;;;;;;8.10;2.28;;;;;;;7.35;100.00;99563.78;5067016;28;20036;-80
2023/12/13 00:23:38;;;;;;;7.50;2.25;;;;;;;7.33;100.00;99566.53;5054706;28;20024;-81
2023/12/13 00:26:04;;;;;;;8.45;2.80;;;;;;;7.32;100.00;99564.03;5049717;28;20029;-81
2023/12/13 00:28:29;;;;;;;9.02;2.13;;;;;;;7.34;100.00;99568.19;5050716;28;20024;-81
2023/12/13 00:30:54;;;;;;;6.85;2.40;;;;;;;7.33;100.00;99571.75;5054765;28;20068;-81
2023/12/13 00:33:20;;;;;;;5.90;2.20;;;;;;;7.33;100.00;99577.00;5061443;28;20535;-81
2023/12/13 00:35:46;;;;;;;9.15;2.50;;;;;;;7.33;100.00;99566.53;5054231;28;20033;-81
2023/12/13 00:38:12;;;;;;;7.55;2.20;;;;;;;7.33;100.00;99561.28;5064502;28;20017;-81
2023/12/13 00:40:37;;;;;;;6.55;2.25;;;;;;;7.32;100.00;99562.25;5059143;28;20025;-81
2023/12/13 00:43:02;;;;;;;7.55;2.70;;;;;;;7.32;100.00;99557.00;5055932;28;20037;-79
2023/12/13 00:45:28;;;;;;;6.00;2.35;;;;;;;7.31;100.00;99557.13;5059311;28;20029;-80
2023/12/13 00:47:53;;;;;;;5.25;2.00;;;;;;;7.31;100.00;99557.13;5055568;28;20024;-79
2023/12/13 00:50:19;;;;;;;6.53;2.55;;;;;;;7.33;100.00;99566.53;5068542;28;20027;-79
2023/12/13 00:52:44;;;;;;;7.05;2.33;;;;;;;7.33;100.00;99565.69;5062377;28;20071;-79
2023/12/13 00:55:09;;;;;;;6.38;2.50;;;;;;;7.32;100.00;99564.03;5047534;28;20071;-80
2023/12/13 00:57:35;;;;;;;6.38;2.17;;;;;;;7.32;100.00;99554.41;5055574;28;20021;-80
2023/12/13 01:00:00;;;;;;;4.72;2.10;;;;;;;7.33;100.00;99553.44;5061100;28;20017;-80
2023/12/13 01:02:29;;;;;;;6.75;2.33;;;;;;;7.31;100.00;99555.34;5050173;28;20025;-80
2023/12/13 01:04:54;;;;;;;8.52;2.50;;;;;;;7.33;100.00;99556.06;5064441;28;20017;-80
2023/12/13 01:07:19;;;;;;;6.72;2.40;;;;;;;7.32;100.00;99546.53;5048998;28;20469;-80
2023/12/13 01:09:45;;;;;;;7.03;2.42;;;;;;;7.32;100.00;99545.72;5067385;28;20075;-80
2023/12/13 01:12:13;;;;;;;8.02;2.70;;;;;;;7.30;100.00;99545.84;5071179;28;20716;-80
2023/12/13 01:14:38;;;;;;;5.13;2.60;;;;;;;7.28;100.00;99547.75;5071903;28;20019;-80
2023/12/13 01:17:03;;;;;;;7.82;2.90;;;;;;;7.28;100.00;99545.13;5066189;28;20021;-80
2023/12/13 01:19:29;;;;;;;8.95;2.70;;;;;;;7.28;100.00;99552.16;5061011;28;20021;-80
2023/12/13 01:21:54;;;;;;;8.98;2.72;;;;;;;7.27;100.00;99548.72;5051697;28;20033;-80
2023/12/13 01:24:19;;;;;;;7.30;2.60;;;;;;;7.27;100.00;99553.13;5051701;28;20049;-80
2023/12/13 01:26:45;;;;;;;6.18;2.55;;;;;;;7.27;100.00;99547.88;5052142;28;20099;-80
2023/12/13 01:29:10;;;;;;;8.32;2.70;;;;;;;7.25;100.00;99547.19;5051214;28;20044;-80
2023/12/13 01:31:36;;;;;;;8.57;2.95;;;;;;;7.26;100.00;99549.66;5067107;28;20055;-80
2023/12/13 01:34:06;;;;;;;6.82;2.72;;;;;;;7.25;100.00;99545.38;5056986;28;20504;-80
2023/12/13 01:36:31;;;;;;;7.68;2.92;;;;;;;7.23;100.00;99542.06;5056446;28;20067;-80
2023/12/13 01:38:59;;;;;;;12.32;2.95;;;;;;;7.21;100.00;99539.56;5057272;28;20041;-80
2023/12/13 01:41:24;;;;;;;8.50;2.90;;;;;;;7.23;100.00;99540.28;5067971;28;20025;-80
2023/12/13 01:43:50;;;;;;;7.53;3.00;;;;;;;7.26;100.00;99549.66;5067226;28;20047;-80
2023/12/13 01:46:18;;;;;;;7.10;3.17;;;;;;;7.25;100.00;99550.63;5057098;28;20024;-80
2023/12/13 01:48:45;;;;;;;9.57;3.20;;;;;;;7.25;100.00;99548.00;5057932;28;20032;-80
2023/12/13 01:51:11;;;;;;;9.05;3.40;;;;;;;7.27;100.00;99555.72;5052227;28;20028;-80
2023/12/13 01:53:39;;;;;;;9.80;3.70;;;;;;;7.26;100.00;99557.50;5058806;28;20128;-80
2023/12/13 01:56:07;;;;;;;11.63;3.65;;;;;;;7.26;100.00;99554.91;5062096;28;20422;-80
2023/12/13 01:58:38;;;;;;;7.90;3.20;;;;;;;7.23;100.00;99552.53;5050326;28;20461;-80
2023/12/13 02:01:06;;;;;;;10.90;4.00;;;;;;;7.27;100.00;99561.78;5071022;28;20029;-81
2023/12/13 02:03:33;;;;;;;9.65;3.67;;;;;;;7.27;100.00;99556.56;5070717;28;20025;-80
2023/12/13 02:06:00;;;;;;;11.70;3.70;;;;;;;7.26;100.00;99554.91;5070841;28;20020;-80
2023/12/13 02:08:26;;;;;;;14.65;4.38;;;;;;;7.29;100.00;99557.25;5069002;28;20400;-80
2023/12/13 02:10:52;;;;;;;12.80;4.18;;;;;;;7.29;100.00;99553.81;5052068;28;20033;-80
2023/12/13 02:13:17;;;;;;;11.60;3.88;;;;;;;7.29;100.00;99549.41;5066907;28;20198;-80
2023/12/13 02:15:44;;;;;;;12.00;4.20;;;;;;;7.30;100.00;99551.06;5052087;28;20531;-80
2023/12/13 02:18:09;;;;;;;12.20;3.67;;;;;;;7.29;100.00;99557.25;5051009;28;20029;-80
2023/12/13 02:20:35;;;;;;;15.05;4.13;;;;;;;7.29;100.00;99557.25;5059610;28;20173;-80
2023/12/13 02:23:00;;;;;;;15.20;4.10;;;;;;;7.30;100.00;99551.06;5069424;28;20036;-81
2023/12/13 02:25:37;;;;;;;14.32;3.88;;;;;;;7.32;100.00;99557.00;5064519;28;20017;-81
2023/12/13 02:28:04;;;;;;;11.13;3.90;;;;;;;7.33;100.00;99544.75;5055794;28;20020;-80
2023/12/13 02:30:30;;;;;;;11.70;3.72;;;;;;;7.32;100.00;99538.69;5062731;28;20424;-81
2023/12/13 02:32:56;;;;;;;16.45;4.15;;;;;;;7.34;100.00;99539.41;5070296;28;20032;-80
2023/12/13 02:35:21;;;;;;;12.07;4.28;;;;;;;7.37;100.00;99535.69;5065833;28;20037;-80
2023/12/13 02:37:49;;;;;;;8.82;3.78;;;;;;;7.34;100.00;99542.03;5067713;28;20078;-80
2023/12/13 02:40:15;;;;;;;10.90;3.88;;;;;;;7.31;100.00;99530.97;5067393;28;20056;-80
2023/12/13 02:42:41;;;;;;;11.13;4.00;;;;;;;7.28;100.00;99537.28;5035711;28;20083;-80
2023/12/13 02:45:10;;;;;;;13.10;4.20;;;;;;;7.24;100.00;99538.50;5059167;28;20021;-81
2023/12/13 02:47:38;;;;;;;11.98;4.40;;;;;;;7.22;100.00;99532.56;5055633;28;20284;-80
2023/12/13 02:50:06;;;;;;;12.38;4.15;;;;;;;7.22;100.00;99538.63;5064654;28;20409;-80
2023/12/13 02:52:31;;;;;;;12.18;3.97;;;;;;;7.20;100.00;99534.44;5049989;28;20036;-80
2023/12/13 02:54:56;;;;;;;16.85;4.47;;;;;;;7.22;100.00;99538.63;5050954;28;20401;-80
2023/12/13 02:57:22;;;;;;;13.07;4.07;;;;;;;7.22;100.00;99529.94;5049692;28;20028;-79
2023/12/13 02:59:47;;;;;;;11.70;3.80;;;;;;;7.26;100.00;99538.38;5060078;28;20025;-80
2023/12/13 03:02:12;;;;;;;16.60;4.55;;;;;;;7.23;100.00;99526.38;5058683;28;20547;-80
2023/12/13 03:04:38;;;;;;;14.80;4.55;;;;;;;7.24;100.00;99530.66;5057145;28;20028;-80
2023/12/13 03:07:04;;;;;;;12.73;4.10;;;;;;;7.22;100.00;99529.94;5065047;28;20020;-80
2023/12/13 03:09:29;;;;;;;13.60;4.10;;;;;;;7.23;100.00;99534.22;5064927;28;20064;-81
2023/12/13 03:11:55;;;;;;;11.38;3.88;;;;;;;7.23;100.00;99531.59;5069891;28;20029;-81
2023/12/13 03:14:20;;;;;;;15.85;4.00;;;;;;;7.23;100.00;99531.59;5068985;28;20036;-81
2023/12/13 03:16:46;;;;;;;17.13;3.78;;;;;;;7.23;100.00;99526.38;5070341;28;20027;-81
2023/12/13 03:19:11;;;;;;;18.45;4.63;;;;;;;7.24;100.00;99525.41;5070286;28;20048;-81
2023/12/13 03:21:36;;;;;;;12.00;3.90;;;;;;;7.26;100.00;99528.75;5069547;28;20028;-81
2023/12/13 03:24:02;;;;;;;16.90;4.30;;;;;;;7.28;100.00;99521.59;5065109;28;20039;-81
2023/12/13 03:26:27;;;;;;;22.25;4.65;;;;;;;7.31;100.00;99520.50;5054376;28;20032;-81
2023/12/13 03:28:52;;;;;;;15.50;4.25;;;;;;;7.30;100.00;99527.53;5065132;28;20021;-81
2023/12/13 03:31:18;;;;;;;15.00;3.60;;;;;;;7.29;100.00;99518.03;5065271;28;20504;-80
2023/12/13 03:33:43;;;;;;;13.93;3.88;;;;;;;7.33;100.00;99516.81;5069392;28;20024;-80
2023/12/13 03:36:16;;;;;;;19.33;4.20;;;;;;;7.33;100.00;99524.66;5064371;28;20036;-80
2023/12/13 03:38:44;;;;;;;15.65;4.20;;;;;;;7.34;100.00;99512.41;5068726;28;20032;-80
2023/12/13 03:41:09;;;;;;;14.98;3.78;;;;;;;7.34;100.00;99509.78;5051654;28;20056;-81
2023/12/13 03:43:34;;;;;;;17.15;4.15;;;;;;;7.38;100.00;99514.66;5062342;28;20271;-80
2023/12/13 03:46:00;;;;;;;19.48;4.28;;;;;;;7.38;100.00;99517.25;5068125;28;20422;-81
2023/12/13 03:48:25;;;;;;;15.43;4.22;;;;;;;7.39;100.00;99508.47;5070108;28;20020;-80
2023/12/13 03:50:50;;;;;;;13.35;3.47;;;;;;;7.39;100.00;99508.47;5066547;28;20078;-80
2023/12/13 03:53:16;;;;;;;17.05;3.65;;;;;;;7.41;100.00;99510.94;5066051;28;20020;-80
2023/12/13 03:55:41;;;;;;;18.30;4.30;;;;;;;7.41;100.00;99508.31;5052692;28;20609;-80
2023/12/13 03:58:06;;;;;;;16.50;4.13;;;;;;;7.41;100.00;99503.09;5052475;28;20558;-80
2023/12/13 04:00:32;;;;;;;16.73;4.15;;;;;;;7.45;100.00;99496.66;5065065;28;20111;-80
2023/12/13 04:02:58;;;;;;;17.77;4.13;;;;;;;7.40;100.00;99494.41;5050801;28;20035;-80
2023/12/13 04:05:23;;;;;;;19.52;4.10;;;;;;;7.43;100.00;99494.16;5068282;28;20387;-80
2023/12/13 04:07:49;;;;;;;20.25;4.10;;;;;;;7.44;100.00;99495.81;5065636;28;20024;-81
2023/12/13 04:10:19;;;;;;;19.17;4.40;;;;;;;7.45;100.00;99502.72;5047443;28;20477;-81
2023/12/13 04:12:45;;;;;;;18.42;4.70;;;;;;;7.44;100.00;99495.81;5055751;28;20039;-80
2023/12/13 04:15:10;;;;;;;20.38;4.32;;;;;;;7.46;100.00;99493.06;5066157;28;20028;-80
2023/12/13 04:17:36;;;;;;;17.85;4.18;;;;;;;7.47;100.00;99492.13;5046506;28;20029;-81
2023/12/13 04:20:02;;;;;;;21.02;4.05;;;;;;;7.46;100.00;99493.91;5059529;28;20492;-79
2023/12/13 04:22:27;;;;;;;16.02;4.63;;;;;;;7.49;100.00;99498.88;5068428;28;20024;-80
2023/12/13 04:24:52;;;;;;;17.73;4.10;;;;;;;7.51;100.00;99498.75;5068439;28;20028;-80
2023/12/13 04:27:18;;;;;;;15.40;4.28;;;;;;;7.50;100.00;99500.53;5067365;28;20021;-80
2023/12/13 04:29:43;;;;;;;19.08;5.00;;;;;;;7.49;100.00;99493.66;5067742;28;20027;-80
2023/12/13 04:32:09;;;;;;;14.75;4.07;;;;;;;7.51;100.00;99491.72;5061468;28;20083;-80
2023/12/13 04:34:35;;;;;;;22.65;4.80;;;;;;;7.51;100.00;99494.34;5052393;28;20053;-80
2023/12/13 04:37:00;;;;;;;21.88;4.75;;;;;;;7.52;100.00;99495.19;5047776;28;20024;-80
2023/12/13 04:39:25;;;;;;;20.63;4.75;;;;;;;7.53;100.00;99495.06;5061896;28;20488;-80
2023/12/13 04:41:51;;;;;;;21.48;4.63;;;;;;;7.54;100.00;99490.66;5068868;28;20107;-81
2023/12/13 04:44:16;;;;;;;18.80;4.45;;;;;;;7.55;100.00;99493.13;5066596;28;20518;-80
2023/12/13 04:46:41;;;;;;;21.90;4.32;;;;;;;7.55;100.00;99493.13;5068790;28;20024;-80
2023/12/13 04:49:07;;;;;;;24.67;4.63;;;;;;;7.55;100.00;99495.75;5070254;28;20055;-80
2023/12/13 04:51:32;;;;;;;14.05;4.20;;;;;;;7.57;100.00;99495.63;5066913;28;20051;-80
2023/12/13 04:54:01;;;;;;;16.63;4.40;;;;;;;7.59;100.00;99493.72;5070485;28;20036;-81
2023/12/13 04:56:26;;;;;;;20.02;4.50;;;;;;;7.58;100.00;99496.44;5065926;28;20029;-80
2023/12/13 04:58:53;;;;;;;21.92;4.88;;;;;;;7.60;100.00;99494.53;5055457;28;20087;-81
2023/12/13 05:01:18;;;;;;;19.75;5.30;;;;;;;7.59;100.00;99492.88;5068853;28;20043;-81
2023/12/13 05:03:43;;;;;;;18.85;4.93;;;;;;;7.60;100.00;99494.53;5056713;28;20025;-80
2023/12/13 05:06:09;;;;;;;22.70;5.28;;;;;;;7.60;100.00;99489.31;5067725;28;20431;-80
2023/12/13 05:08:34;;;;;;;19.92;4.63;;;;;;;7.60;100.00;99487.50;5071710;28;20029;-80
2023/12/13 05:10:59;;;;;;;19.55;5.00;;;;;;;7.61;100.00;99488.38;5071120;28;20044;-81
2023/12/13 05:13:25;;;;;;;17.45;5.00;;;;;;;7.61;100.00;99489.19;5088252;28;20531;-80
2023/12/13 05:15:51;;;;;;;19.08;5.18;;;;;;;7.60;100.00;99484.91;5068517;28;20032;-81
2023/12/13 05:18:17;;;;;;;17.50;4.85;;;;;;;7.63;100.00;99486.47;5057182;28;20318;-80
2023/12/13 05:20:42;;;;;;;26.20;5.05;;;;;;;7.61;100.00;99477.91;5078184;28;20387;-80
2023/12/13 05:23:08;;;;;;;22.13;5.15;;;;;;;7.62;100.00;99476.94;5072588;28;20050;-80
2023/12/13 05:25:33;;;;;;;22.55;4.65;;;;;;;7.61;100.00;99475.28;5071589;28;20020;-81
2023/12/13 05:27:59;;;;;;;20.02;4.82;;;;;;;7.60;100.00;99478.84;5071801;28;20038;-80
2023/12/13 05:30:24;;;;;;;23.48;5.00;;;;;;;7.62;100.00;99480.38;5072079;28;20123;-80
2023/12/13 05:32:52;;;;;;;20.92;4.75;;;;;;;7.62;100.00;99482.19;5069341;28;20023;-80
2023/12/13 05:35:18;;;;;;;20.10;5.18;;;;;;;7.62;100.00;99482.19;5052444;28;20280;-80
2023/12/13 05:37:43;;;;;;;20.95;4.97;;;;;;;7.62;100.00;99474.31;5059072;28;20555;-80
2023/12/13 05:40:09;;;;;;;21.02;5.00;;;;;;;7.59;100.00;99474.56;5061927;28;20055;-80
2023/12/13 05:42:35;;;;;;;18.35;4.85;;;;;;;7.60;100.00;99484.91;5050670;28;20021;-80
2023/12/13 05:45:00;;;;;;;25.95;5.50;;;;;;;7.62;100.00;99482.19;5052660;28;20040;-80
2023/12/13 05:47:26;;;;;;;24.45;4.63;;;;;;;7.60;100.00;99478.84;5052778;28;20024;-80
2023/12/13 05:49:51;;;;;;;17.58;4.38;;;;;;;7.61;100.00;99480.53;5066038;28;20107;-80
2023/12/13 05:52:18;;;;;;;18.17;4.72;;;;;;;7.61;100.00;99485.75;5065832;28;20061;-80
2023/12/13 05:54:43;;;;;;;22.83;5.45;;;;;;;7.58;100.00;99486.81;5068117;28;20021;-80
2023/12/13 05:57:09;;;;;;;20.98;4.95;;;;;;;7.59;100.00;99482.41;5061310;28;20032;-80
2023/12/13 05:59:34;;;;;;;17.92;4.63;;;;;;;7.59;100.00;99485.03;5058821;28;20025;-80
2023/12/13 06:01:59;;;;;;;16.95;4.65;;;;;;;7.59;100.00;99482.41;5059666;28;20530;-80
2023/12/13 06:04:25;;;;;;;21.58;4.55;;;;;;;7.58;100.00;99486.81;5064930;28;20121;-80
2023/12/13 06:06:51;;;;;;;30.02;5.20;;;;;;;7.57;100.00;99484.31;5058851;28;20112;-80
2023/12/13 06:09:16;;;;;;;20.13;5.28;;;;;;;7.55;100.00;99481.84;5052396;28;20117;-79
2023/12/13 06:11:41;;;;;;;18.13;5.13;;;;;;;7.51;100.00;99476.03;5050145;28;20032;-79
2023/12/13 06:14:07;;;;;;;20.58;5.03;;;;;;;7.52;100.00;99477.69;5064202;28;20082;-79
2023/12/13 06:16:33;;;;;;;21.23;5.13;;;;;;;7.52;100.00;99485.53;5052999;28;20481;-79
2023/12/13 06:18:58;;;;;;;23.60;5.20;;;;;;;7.50;100.00;99484.84;5063471;28;20638;-80
2023/12/13 06:21:24;;;;;;;22.02;5.65;;;;;;;7.49;100.00;99490.19;5069252;28;20020;-80
2023/12/13 06:23:49;;;;;;;19.77;5.00;;;;;;;7.50;100.00;99494.47;5064129;28;20108;-80
2023/12/13 06:26:14;;;;;;;27.90;5.30;;;;;;;7.47;100.00;99490.31;5068229;28;20024;-80
2023/12/13 06:28:40;;;;;;;21.77;5.22;;;;;;;7.46;100.00;99496.53;5069246;28;20068;-81
2023/12/13 06:31:05;;;;;;;20.08;5.30;;;;;;;7.49;100.00;99496.25;5067223;28;20036;-80
2023/12/13 06:33:33;;;;;;;22.70;4.90;;;;;;;7.48;100.00;99502.47;5066919;28;20084;-80
2023/12/13 06:35:59;;;;;;;22.80;5.90;;;;;;;7.51;100.00;99501.38;5054478;28;20035;-80
2023/12/13 06:38:24;;;;;;;22.33;5.32;;;;;;;7.48;100.00;99497.22;5068048;28;20540;-80
2023/12/13 06:40:50;;;;;;;21.17;5.72;;;;;;;7.49;100.00;99498.88;5068269;28;20028;-80
2023/12/13 06:43:18;;;;;;;18.98;5.38;;;;;;;7.50;100.00;99499.72;5069748;28;20365;-80
2023/12/13 06:45:43;;;;;;;22.95;5.90;;;;;;;7.49;100.00;99498.88;5076355;28;20044;-81
2023/12/13 06:48:09;;;;;;;18.98;5.57;;;;;;;7.49;100.00;99504.13;5065799;28;20499;-80
2023/12/13 06:50:35;;;;;;;22.77;6.53;;;;;;;7.49;100.00;99504.13;5069390;28;20135;-79
2023/12/13 06:53:00;;;;;;;22.92;5.93;;;;;;;7.48;100.00;99497.22;5069501;28;20035;-81
2023/12/13 06:55:26;;;;;;;18.17;6.18;;;;;;;7.49;100.00;99498.06;5069374;28;20032;-81
2023/12/13 06:57:51;;;;;;;17.90;5.80;;;;;;;7.49;100.00;99495.44;5069625;28;20103;-81
2023/12/13 07:00:21;;;;;;;16.95;5.60;;;;;;;7.48;100.00;99497.22;5067932;28;20032;-80
2023/12/13 07:02:46;;;;;;;16.85;5.93;;;;;;;7.49;100.00;99501.50;5070197;28;20031;-81
2023/12/13 07:05:12;;;;;;;19.83;6.18;;;;;;;7.49;100.00;99498.88;5067667;28;20032;-81
2023/12/13 07:07:37;;;;;;;19.33;6.00;;;;;;;7.51;100.00;99501.38;5069322;28;20024;-81
2023/12/13 07:10:03;;;;;;;18.45;5.95;;;;;;;7.50;100.00;99511.00;5069363;28;20096;-81
2023/12/13 07:12:29;;;;;;;22.85;6.60;;;;;;;7.50;100.00;99510.19;5065726;28;20476;-81
2023/12/13 07:14:58;;;;;;;17.60;6.10;;;;;;;7.50;100.00;99511.00;5069325;28;20082;-80
2023/12/13 07:17:24;;;;;;;22.08;6.75;;;;;;;7.51;100.00;99507.44;5058967;28;20100;-82
2023/12/13 07:19:50;;;;;;;17.52;6.55;;;;;;;7.52;100.00;99503.84;5057305;28;20170;-81
2023/12/13 07:22:18;;;;;;;19.55;6.85;;;;;;;7.51;100.00;99519.69;5065356;28;20025;-81
2023/12/13 07:24:45;;;;;;;18.20;6.72;;;;;;;7.53;100.00;99516.00;5051781;28;20033;-81
2023/12/13 07:27:11;;;;;;;21.30;7.15;;;;;;;7.52;100.00;99514.31;5059497;28;20435;-81
2023/12/13 07:29:36;;;;;;;18.80;7.00;;;;;;;7.51;100.00;99517.06;5054781;28;20107;-81
2023/12/13 07:32:04;;;;;;;21.15;6.75;;;;;;;7.52;100.00;99518.72;5067601;28;20068;-81
2023/12/13 07:34:29;;;;;;;16.48;6.70;;;;;;;7.50;100.00;99513.63;5068318;28;20121;-81
2023/12/13 07:36:54;;;;;;;20.45;7.03;;;;;;;7.52;100.00;99513.50;5061867;28;20056;-81
2023/12/13 07:39:20;;;;;;;17.10;6.65;;;;;;;7.49;100.00;99514.59;5067907;28;20028;-81
2023/12/13 07:41:46;;;;;;;16.65;6.53;;;;;;;7.51;100.00;99520.53;5068643;28;20029;-81
2023/12/13 07:44:12;;;;;;;19.80;7.07;;;;;;;7.51;100.00;99511.84;5054280;28;20112;-81
2023/12/13 07:46:38;;;;;;;19.65;7.15;;;;;;;7.52;100.00;99519.56;5067315;28;20494;-81
2023/12/13 07:49:04;;;;;;;17.77;7.18;;;;;;;7.51;100.00;99515.28;5065828;28;20024;-81
2023/12/13 07:51:31;;;;;;;17.75;7.30;;;;;;;7.54;100.00;99519.44;5061604;28;20096;-80
2023/12/13 07:53:58;;;;;;;16.15;7.13;;;;;;;7.53;100.00;99510.75;5064157;28;20032;-83
2023/12/13 07:56:25;;;;;;;21.90;7.50;;;;;;;7.55;100.00;99524.53;5068089;28;20107;-82
2023/12/13 07:58:50;;;;;;;19.00;7.78;;;;;;;7.58;100.00;99525.25;5067647;28;20028;-82
2023/12/13 08:01:16;;;;;;;20.02;7.97;;;;;;;7.58;100.00;99517.38;5067442;28;20101;-82
2023/12/13 08:03:41;;;;;;;26.48;8.45;;;;;;;7.58;100.00;99525.25;5066443;28;20530;-82
2023/12/13 08:06:13;;;;;;;21.98;8.55;;;;;;;7.58;100.00;99515.59;5063796;28;20096;-82
2023/12/13 08:08:39;;;;;;;17.05;8.23;;;;;;;7.61;100.00;99530.25;5066982;28;20033;-82
2023/12/13 08:11:05;;;;;;;17.70;8.25;;;;;;;7.60;100.00;99510.25;5067528;28;20028;-82
2023/12/13 08:13:30;;;;;;;17.45;8.55;;;;;;;7.63;100.00;99520.47;5061204;28;20470;-82
2023/12/13 08:15:55;;;;;;;18.35;7.78;;;;;;;7.63;100.00;99520.47;5068752;28;20036;-82
2023/12/13 08:18:21;;;;;;;18.98;8.50;;;;;;;7.64;100.00;99522.97;5065048;28;20106;-82
2023/12/13 08:20:46;;;;;;;16.63;7.60;;;;;;;7.64;100.00;99527.38;5064582;28;20032;-82
2023/12/13 08:23:12;;;;;;;18.45;7.75;;;;;;;7.64;100.00;99525.59;5069521;28;20016;-82
2023/12/13 08:25:38;;;;;;;18.20;7.90;;;;;;;7.66;100.00;99526.28;5062750;28;20040;-82
2023/12/13 08:28:03;;;;;;;19.33;7.18;;;;;;;7.66;100.00;99526.28;5049068;28;20052;-82
2023/12/13 08:30:29;;;;;;;19.77;7.13;;;;;;;7.69;100.00;99535.69;5049367;28;20128;-82
2023/12/13 08:32:54;;;;;;;16.00;7.60;;;;;;;7.68;100.00;99544.50;5066662;28;20034;-82
2023/12/13 08:35:19;;;;;;;19.30;7.72;;;;;;;7.69;100.00;99540.91;5068782;28;20017;-82
2023/12/13 08:37:45;;;;;;;20.30;7.75;;;;;;;7.72;100.00;99538.88;5067809;28;20036;-82
2023/12/13 08:40:11;;;;;;;17.33;7.22;;;;;;;7.75;100.00;99541.22;5066624;28;20020;-82
2023/12/13 08:42:37;;;;;;;20.70;7.15;;;;;;;7.78;100.00;99545.38;5068191;28;20033;-82
2023/12/13 08:45:03;;;;;;;22.13;7.55;;;;;;;7.80;100.00;99543.47;5067891;28;20031;-82
2023/12/13 08:47:29;;;;;;;20.38;8.10;;;;;;;7.85;100.00;99549.13;5068298;28;20082;-82
2023/12/13 08:49:54;;;;;;;20.95;7.65;;;;;;;7.91;100.00;99550.41;5067181;28;20025;-82
2023/12/13 08:52:20;;;;;;;21.65;7.60;;;;;;;7.93;100.00;99543.25;5065648;28;20472;-81
2023/12/13 08:54:46;;;;;;;21.33;6.90;;;;;;;7.98;100.00;99546.31;5068779;28;20032;-81
2023/12/13 08:57:11;;;;;;;16.10;6.93;;;;;;;8.03;100.00;99555.47;5066092;28;20388;-81
2023/12/13 08:59:37;;;;;;;20.70;7.40;;;;;;;8.04;100.00;99551.91;5067397;28;20028;-81
2023/12/13 09:02:02;;;;;;;19.85;6.90;;;;;;;8.08;100.00;99553.28;5067795;28;20025;-81
2023/12/13 09:04:28;;;;;;;20.67;7.10;;;;;;;8.09;100.00;99560.19;5067160;28;20025;-81
2023/12/13 09:06:53;;;;;;;19.52;6.55;;;;;;;8.13;100.00;99561.59;5068342;28;20024;-82
2023/12/13 09:09:19;;;;;;;20.60;6.70;;;;;;;8.16;100.00;99561.34;5067230;28;20500;-82
2023/12/13 09:11:46;;;;;;;19.45;7.15;;;;;;;8.16;100.00;99555.25;5067939;28;20032;-82
2023/12/13 09:14:11;;;;;;;20.45;6.57;;;;;;;8.15;100.00;99564.91;5066100;28;20040;-81
2023/12/13 09:16:38;;;;;;;18.13;6.65;;;;;;;8.18;100.00;99566.44;5066172;28;20550;-82
2023/12/13 09:19:04;;;;;;;18.73;7.00;;;;;;;8.18;100.00;99564.66;5068182;28;20028;-81
2023/12/13 09:21:30;;;;;;;17.30;6.40;;;;;;;8.24;100.00;99572.94;5067370;28;20514;-81
2023/12/13 09:23:55;;;;;;;19.63;6.97;;;;;;;8.28;100.00;99569.94;5068824;28;20028;-81
2023/12/13 09:26:20;;;;;;;19.23;6.57;;;;;;;8.27;100.00;99570.91;5067691;28;20021;-81
2023/12/13 09:28:46;;;;;;;19.58;6.90;;;;;;;8.28;100.00;99572.56;5066646;28;20489;-82
2023/12/13 09:31:12;;;;;;;17.75;6.65;;;;;;;8.29;100.00;99570.75;5067634;28;20493;-82
2023/12/13 09:33:37;;;;;;;19.83;7.07;;;;;;;8.29;100.00;99570.75;5071525;28;20481;-81
2023/12/13 09:36:03;;;;;;;19.83;7.80;;;;;;;8.29;100.00;99581.25;5070696;28;20119;-81
2023/12/13 09:38:30;;;;;;;20.10;7.72;;;;;;;8.33;100.00;99577.41;5068289;28;20024;-81
2023/12/13 09:40:55;;;;;;;18.00;6.90;;;;;;;8.37;100.00;99586.69;5071719;28;20020;-81
2023/12/13 09:43:23;;;;;;;20.05;7.10;;;;;;;8.41;100.00;99585.50;5069138;28;20029;-81
2023/12/13 09:45:51;;;;;;;15.68;6.93;;;;;;;8.40;100.00;99586.44;5070402;28;20460;-81
2023/12/13 09:48:21;;;;;;;14.05;6.60;;;;;;;8.40;100.00;99589.88;5070472;28;20028;-81
2023/12/13 09:50:52;;;;;;;18.48;7.18;;;;;;;8.39;100.00;99587.41;5070647;28;20031;-81
2023/12/13 09:53:20;;;;;;;17.00;6.88;;;;;;;8.39;100.00;99595.25;5069462;28;20020;-81
2023/12/13 09:55:47;;;;;;;15.80;7.25;;;;;;;8.37;100.00;99600.63;5070895;28;20020;-81
2023/12/13 09:58:12;;;;;;;16.45;6.93;;;;;;;8.37;100.00;99595.38;5069374;28;20086;-81
2023/12/13 10:00:37;;;;;;;19.45;6.97;;;;;;;8.36;100.00;99598.97;5068994;28;20588;-81
2023/12/13 10:03:03;;;;;;;13.45;6.85;;;;;;;8.40;100.00;99596.91;5069855;28;20021;-81
2023/12/13 10:05:32;;;;;;;12.77;6.53;;;;;;;8.41;100.00;99606.47;5070507;28;20032;-81
2023/12/13 10:08:02;;;;;;;15.18;7.43;;;;;;;8.40;100.00;99607.41;5070737;28;20028;-81
2023/12/13 10:10:31;;;;;;;14.40;7.07;;;;;;;8.38;100.00;99606.69;5068618;28;20056;-82
2023/12/13 10:13:01;;;;;;;14.60;7.15;;;;;;;8.34;100.00;99607.91;5069335;28;20029;-81
2023/12/13 10:15:32;;;;;;;19.35;7.85;;;;;;;8.33;100.00;99609.72;5069239;28;20031;-82
2023/12/13 10:18:03;;;;;;;13.50;7.28;;;;;;;8.32;100.00;99615.88;5069171;28;20078;-81
2023/12/13 10:20:33;;;;;;;12.57;7.15;;;;;;;8.31;100.00;99621.25;5069064;28;20032;-81
2023/12/13 10:22:59;;;;;;;15.93;7.75;;;;;;;8.30;100.00;99619.59;5070553;28;20028;-81
2023/12/13 10:25:25;;;;;;;16.73;7.68;;;;;;;8.29;100.00;99617.94;5070726;28;20032;-81
2023/12/13 10:27:53;;;;;;;15.18;7.95;;;;;;;8.28;100.00;99618.88;5071653;28;20026;-81
2023/12/13 10:30:19;;;;;;;19.20;7.82;;;;;;;8.29;100.00;99623.16;5069718;28;20032;-81
2023/12/13 10:32:44;;;;;;;20.10;7.72;;;;;;;8.28;100.00;99621.50;5070644;28;20044;-82
2023/12/13 10:35:10;;;;;;;16.48;7.82;;;;;;;8.29;100.00;99613.53;5071141;28;20043;-82
2023/12/13 10:37:36;;;;;;;17.08;7.85;;;;;;;8.29;100.00;99617.94;5069192;28;20476;-82
2023/12/13 10:40:03;;;;;;;13.05;7.13;;;;;;;8.29;100.00;99612.69;5069760;28;20030;-82
2023/12/13 10:42:29;;;;;;;16.73;7.50;;;;;;;8.30;100.00;99614.34;5070195;28;20012;-82
2023/12/13 10:44:54;;;;;;;20.73;8.07;;;;;;;8.31;100.00;99616.84;5068505;28;20050;-82
2023/12/13 10:47:25;;;;;;;16.92;7.80;;;;;;;8.29;100.00;99624.00;5069642;28;20027;-82
2023/12/13 10:49:54;;;;;;;17.80;7.40;;;;;;;8.36;100.00;99619.09;5068953;28;20159;-82
2023/12/13 10:52:21;;;;;;;15.00;7.57;;;;;;;8.35;100.00;99612.19;5069467;28;20042;-79
2023/12/13 10:54:53;;;;;;;15.90;7.32;;;;;;;8.38;100.00;99618.00;5069551;28;20078;-79
2023/12/13 10:57:18;;;;;;;19.52;8.00;;;;;;;8.41;100.00;99617.78;5069381;28;20258;-80
2023/12/13 10:59:45;;;;;;;17.25;7.53;;;;;;;8.43;100.00;99620.28;5068551;28;20429;-79
2023/12/13 11:02:16;;;;;;;20.45;8.40;;;;;;;8.41;100.00;99617.78;5071798;28;20083;-79
2023/12/13 11:04:45;;;;;;;18.65;7.35;;;;;;;8.44;100.00;99611.44;5064588;28;20089;-80
2023/12/13 11:07:11;;;;;;;15.88;7.03;;;;;;;8.45;100.00;99616.56;5067469;28;20362;-79
2023/12/13 11:09:49;;;;;;;17.95;7.20;;;;;;;8.47;100.00;99626.91;5065973;28;20142;-80
2023/12/13 11:12:18;;;;;;;16.77;7.07;;;;;;;8.45;100.00;99627.03;5069310;28;20021;-80
2023/12/13 11:14:47;;;;;;;18.67;6.40;;;;;;;8.51;100.00;99622.25;5068581;28;20452;-80
2023/12/13 11:17:12;;;;;;;13.40;6.10;;;;;;;8.52;100.00;99629.97;5069343;28;20036;-80
2023/12/13 11:19:39;;;;;;;16.38;6.47;;;;;;;8.56;100.00;99631.38;5068363;28;20020;-80
2023/12/13 11:22:10;;;;;;;19.98;5.93;;;;;;;8.59;100.00;99636.34;5063186;28;20116;-80